createdAt,value
2019-05-06T00:01:40.886Z,6.17
2019-05-06T00:04:13.973Z,6.57
2019-05-06T00:06:44.903Z,6.60
2019-05-06T00:09:16.095Z,6.57
2019-05-06T00:11:47.283Z,5.90
2019-05-06T00:14:18.430Z,6.90
2019-05-06T00:16:49.593Z,6.70
2019-05-06T00:19:20.772Z,6.97
2019-05-06T00:21:53.992Z,6.20
2019-05-06T00:24:27.045Z,7.03
2019-05-06T00:27:08.998Z,6.60
2019-05-06T00:29:40.258Z,6.93
2019-05-06T00:32:11.448Z,6.77
2019-05-06T00:34:43.612Z,6.53
2019-05-06T00:37:16.026Z,6.87
2019-05-06T00:39:55.703Z,6.93
2019-05-06T00:42:34.861Z,6.53
2019-05-06T00:45:07.057Z,6.83
2019-05-06T00:47:38.304Z,7.03
2019-05-06T00:50:09.738Z,7.03
2019-05-06T00:52:40.907Z,6.67
2019-05-06T00:55:13.701Z,6.40
2019-05-06T00:57:44.928Z,7.20
2019-05-06T01:00:18.595Z,6.90
2019-05-06T01:02:49.765Z,6.83
2019-05-06T01:05:20.955Z,7.00
2019-05-06T01:07:54.706Z,6.23
2019-05-06T01:10:25.150Z,6.77
2019-05-06T01:13:24.560Z,7.53
2019-05-06T01:15:55.685Z,7.07
2019-05-06T01:18:26.856Z,6.70
2019-05-06T01:21:10.119Z,7.10
2019-05-06T01:23:44.804Z,7.33
2019-05-06T01:26:16.626Z,6.77
2019-05-06T01:28:47.919Z,6.93
2019-05-06T01:31:19.148Z,6.53
2019-05-06T01:33:50.297Z,7.47
2019-05-06T01:36:21.529Z,7.40
2019-05-06T01:39:21.722Z,7.80
2019-05-06T01:41:58.918Z,6.87
2019-05-06T01:44:30.106Z,6.77
2019-05-06T01:47:01.247Z,6.80
2019-05-06T01:49:33.999Z,7.43
2019-05-06T01:52:05.266Z,6.63
2019-05-06T01:54:36.510Z,6.77
2019-05-06T01:57:07.652Z,7.27
2019-05-06T01:59:38.792Z,7.27
2019-05-06T02:02:09.965Z,7.67
2019-05-06T02:04:41.134Z,7.80
2019-05-06T02:07:14.314Z,7.47
2019-05-06T02:09:45.190Z,8.03
2019-05-06T02:12:16.352Z,7.00
2019-05-06T02:14:47.574Z,6.83
2019-05-06T02:17:18.758Z,7.10
2019-05-06T02:19:49.996Z,7.20
2019-05-06T02:22:35.380Z,7.53
2019-05-06T02:25:17.123Z,7.90
2019-05-06T02:27:48.319Z,7.40
2019-05-06T02:30:38.588Z,7.20
2019-05-06T02:33:35.374Z,7.30
2019-05-06T02:36:21.737Z,7.33
2019-05-06T02:38:55.785Z,7.30
2019-05-06T02:41:25.808Z,7.83
2019-05-06T02:43:56.983Z,7.93
2019-05-06T02:46:28.190Z,7.80
2019-05-06T02:49:23.737Z,6.90
2019-05-06T02:51:54.206Z,7.73
2019-05-06T02:54:25.406Z,8.17
2019-05-06T02:56:56.631Z,7.57
2019-05-06T02:59:27.836Z,8.43
2019-05-06T03:01:59.047Z,6.93
2019-05-06T03:04:33.072Z,7.93
2019-05-06T03:07:03.836Z,7.57
2019-05-06T03:09:35.108Z,6.97
2019-05-06T03:12:06.270Z,7.67
2019-05-06T03:14:37.451Z,7.63
2019-05-06T03:17:08.639Z,7.83
2019-05-06T03:19:45.758Z,7.70
2019-05-06T03:22:34.137Z,7.60
2019-05-06T03:25:13.575Z,8.53
2019-05-06T03:27:46.923Z,8.27
2019-05-06T03:30:17.723Z,7.30
2019-05-06T03:33:28.200Z,7.57
2019-05-06T03:35:36.168Z,7.70
2019-05-06T03:37:54.710Z,7.40
2019-05-06T03:40:25.878Z,7.33
2019-05-06T03:42:57.076Z,8.07
2019-05-06T03:45:49.692Z,7.53
2019-05-06T03:48:25.829Z,7.73
2019-05-06T03:50:57.091Z,8.13
2019-05-06T03:53:33.336Z,8.60
2019-05-06T03:56:03.943Z,8.47
2019-05-06T03:58:37.577Z,8.63
2019-05-06T04:01:08.807Z,8.10
2019-05-06T04:03:47.466Z,8.27
2019-05-06T04:06:14.500Z,7.87
2019-05-06T04:08:46.658Z,8.30
2019-05-06T04:11:18.838Z,8.57
2019-05-06T04:13:53.199Z,8.03
2019-05-06T04:16:45.108Z,8.77
2019-05-06T04:19:24.456Z,8.70
2019-05-06T04:22:23.386Z,8.10
2019-05-06T04:25:13.773Z,9.13
2019-05-06T04:27:58.286Z,9.43
2019-05-06T04:30:29.522Z,9.10
2019-05-06T04:33:03.253Z,8.63
2019-05-06T04:35:34.092Z,9.23
2019-05-06T04:38:05.408Z,8.73
2019-05-06T04:40:36.737Z,8.03
2019-05-06T04:43:08.023Z,9.37
2019-05-06T04:45:39.377Z,9.43
2019-05-06T04:48:13.661Z,9.43
2019-05-06T04:50:44.502Z,8.43
2019-05-06T04:53:16.049Z,8.70
2019-05-06T04:55:47.285Z,8.40
2019-05-06T04:58:18.634Z,8.57
2019-05-06T05:00:53.041Z,8.40
2019-05-06T05:03:25.883Z,8.20
2019-05-06T05:05:57.072Z,9.60
2019-05-06T05:08:37.853Z,8.90
2019-05-06T05:11:26.148Z,9.13
2019-05-06T05:14:13.453Z,8.90
2019-05-06T05:17:08.113Z,8.87
2019-05-06T05:19:40.023Z,8.27
2019-05-06T05:22:12.473Z,9.47
2019-05-06T05:24:43.926Z,9.37
2019-05-06T05:27:15.162Z,8.60
2019-05-06T05:29:46.474Z,8.20
2019-05-06T05:32:17.722Z,8.80
2019-05-06T05:34:48.979Z,9.17
2019-05-06T05:37:22.601Z,9.17
2019-05-06T05:39:53.590Z,11.07
2019-05-06T05:42:34.174Z,8.97
2019-05-06T05:45:05.486Z,10.70
2019-05-06T05:47:36.697Z,11.23
2019-05-06T05:50:22.681Z,11.07
2019-05-06T05:52:53.603Z,10.73
2019-05-06T05:55:24.788Z,11.27
2019-05-06T05:57:56.000Z,10.70
2019-05-06T06:00:28.935Z,10.93
2019-05-06T06:03:00.090Z,10.70
2019-05-06T06:05:32.973Z,10.57
2019-05-06T06:08:04.435Z,10.47
2019-05-06T06:11:00.763Z,10.23
2019-05-06T06:13:33.536Z,10.60
2019-05-06T06:16:23.262Z,10.47
2019-05-06T06:19:05.488Z,10.03
2019-05-06T06:21:43.131Z,10.60
2019-05-06T06:24:20.135Z,10.83
2019-05-06T06:26:53.573Z,9.70
2019-05-06T06:29:24.791Z,10.23
2019-05-06T06:32:33.346Z,9.87
2019-05-06T06:35:26.512Z,9.97
2019-05-06T06:38:13.574Z,10.47
2019-05-06T06:40:44.772Z,9.33
2019-05-06T06:43:19.954Z,8.13
2019-05-06T06:45:53.111Z,8.27
2019-05-06T06:48:24.007Z,9.70
2019-05-06T06:50:55.196Z,7.97
2019-05-06T06:53:26.607Z,7.10
2019-05-06T06:56:16.760Z,6.90
2019-05-06T06:59:05.613Z,7.10
2019-05-06T07:01:45.907Z,8.17
2019-05-06T07:04:23.468Z,8.23
2019-05-06T07:06:56.225Z,7.43
2019-05-06T07:09:29.704Z,7.20
2019-05-06T07:12:00.474Z,7.50
2019-05-06T07:14:35.834Z,8.87
2019-05-06T07:17:05.535Z,7.20
2019-05-06T07:19:42.276Z,7.53
2019-05-06T07:22:13.475Z,7.23
2019-05-06T07:24:44.606Z,7.50
2019-05-06T07:27:20.188Z,7.33
2019-05-06T07:29:52.226Z,8.33
2019-05-06T07:32:23.679Z,7.17
2019-05-06T07:34:54.858Z,7.50
2019-05-06T07:37:26.029Z,6.87
2019-05-06T07:39:57.256Z,7.60
2019-05-06T07:42:35.221Z,7.60
2019-05-06T07:45:28.748Z,7.27
2019-05-06T07:48:05.869Z,7.43
2019-05-06T07:50:37.030Z,7.43
2019-05-06T07:53:08.880Z,7.73
2019-05-06T07:55:42.435Z,7.77
2019-05-06T07:58:14.062Z,11.60
2019-05-06T08:00:45.200Z,7.57
2019-05-06T08:03:18.025Z,7.53
2019-05-06T08:05:55.729Z,8.33
2019-05-06T08:08:22.999Z,8.10
2019-05-06T08:10:54.425Z,7.20
2019-05-06T08:13:25.584Z,6.30
2019-05-06T08:15:56.760Z,7.27
2019-05-06T08:18:27.966Z,7.13
2019-05-06T08:21:02.498Z,7.30
2019-05-06T08:23:42.849Z,7.27
2019-05-06T08:26:17.587Z,6.43
2019-05-06T08:28:47.099Z,7.20
2019-05-06T08:31:22.194Z,7.12
2019-05-06T08:33:52.943Z,7.17
2019-05-06T08:36:54.422Z,6.77
2019-05-06T08:39:25.692Z,7.80
2019-05-06T08:41:56.897Z,7.30
2019-05-06T08:44:28.129Z,7.40
2019-05-06T08:46:59.360Z,7.23
2019-05-06T08:49:49.522Z,7.47
2019-05-06T08:52:21.772Z,8.87
2019-05-06T08:54:55.010Z,7.37
2019-05-06T08:57:26.191Z,6.50
2019-05-06T08:59:57.511Z,7.10
2019-05-06T09:02:28.716Z,7.40
2019-05-06T09:04:59.917Z,7.53
2019-05-06T09:07:32.032Z,7.07
2019-05-06T09:10:03.352Z,7.60
2019-05-06T09:12:34.581Z,6.70
2019-05-06T09:15:06.065Z,6.67
2019-05-06T09:17:37.332Z,7.57
2019-05-06T09:20:08.638Z,7.07
2019-05-06T09:22:39.827Z,7.10
2019-05-06T09:25:12.878Z,6.20
2019-05-06T09:28:15.204Z,6.60
2019-05-06T09:30:53.713Z,6.17
2019-05-06T09:33:33.020Z,7.70
2019-05-06T09:36:03.595Z,6.93
2019-05-06T09:38:34.813Z,6.63
2019-05-06T09:41:06.087Z,6.05
2019-05-06T09:43:37.302Z,5.53
2019-05-06T09:46:08.502Z,6.00
2019-05-06T09:48:57.539Z,6.10
2019-05-06T09:51:28.874Z,6.60
2019-05-06T09:54:12.873Z,5.47
2019-05-06T09:56:53.296Z,5.42
2019-05-06T09:59:24.666Z,4.83
2019-05-06T10:01:55.898Z,5.50
2019-05-06T10:04:27.105Z,6.80
2019-05-06T10:07:00.034Z,7.37
2019-05-06T10:09:32.643Z,6.60
2019-05-06T10:12:03.935Z,5.35
2019-05-06T10:14:35.193Z,5.37
2019-05-06T10:17:06.433Z,5.67
2019-05-06T10:19:37.841Z,5.27
2019-05-06T10:22:09.187Z,5.75
2019-05-06T10:24:42.451Z,5.90
2019-05-06T10:27:13.363Z,5.50
2019-05-06T10:29:52.248Z,5.87
2019-05-06T10:32:37.999Z,5.67
2019-05-06T10:35:09.760Z,5.40
2019-05-06T10:38:24.575Z,5.72
2019-05-06T10:41:03.914Z,6.13
2019-05-06T10:44:08.119Z,5.20
2019-05-06T10:46:39.329Z,5.20
2019-05-06T10:49:13.066Z,5.87
2019-05-06T10:51:49.134Z,5.42
2019-05-06T10:54:22.760Z,5.03
2019-05-06T10:57:02.245Z,4.90
2019-05-06T10:59:34.702Z,5.95
2019-05-06T11:02:26.590Z,5.83
2019-05-06T11:04:57.948Z,5.25
2019-05-06T11:07:34.523Z,6.12
2019-05-06T11:10:03.088Z,5.30
2019-05-06T11:12:34.349Z,5.37
2019-05-06T11:15:06.693Z,6.45
2019-05-06T11:17:39.048Z,6.17
2019-05-06T11:20:13.710Z,6.70
2019-05-06T11:22:43.820Z,5.58
2019-05-06T11:25:15.211Z,5.15
2019-05-06T11:27:46.387Z,5.50
2019-05-06T11:30:45.784Z,5.30
2019-05-06T11:33:37.160Z,5.28
2019-05-06T11:36:15.226Z,4.85
2019-05-06T11:38:48.359Z,4.75
2019-05-06T11:41:18.475Z,5.40
2019-05-06T11:43:52.112Z,4.50
2019-05-06T11:46:22.967Z,4.78
2019-05-06T11:48:54.236Z,4.67
2019-05-06T11:51:27.130Z,4.95
2019-05-06T11:53:58.289Z,5.75
2019-05-06T11:56:29.577Z,5.42
2019-05-06T11:59:02.493Z,5.83
2019-05-06T12:01:38.711Z,6.03
2019-05-06T12:04:09.919Z,5.10
2019-05-06T12:06:42.328Z,5.13
2019-05-06T12:09:16.819Z,5.72
2019-05-06T12:11:46.576Z,5.37
2019-05-06T12:14:17.799Z,5.42
2019-05-06T12:16:49.101Z,4.55
2019-05-06T12:19:22.325Z,4.80
2019-05-06T12:21:53.368Z,4.50
2019-05-06T12:24:24.557Z,4.20
2019-05-06T12:26:55.784Z,4.12
2019-05-06T12:29:26.999Z,4.80
2019-05-06T12:32:06.507Z,5.05
2019-05-06T12:34:37.740Z,5.17
2019-05-06T12:37:12.111Z,5.45
2019-05-06T12:39:48.843Z,4.53
2019-05-06T12:42:35.097Z,4.53
2019-05-06T12:45:15.264Z,4.00
2019-05-06T12:48:13.110Z,4.42
2019-05-06T12:50:44.360Z,4.20
2019-05-06T12:53:15.563Z,5.00
2019-05-06T12:55:46.769Z,5.40
2019-05-06T12:58:21.038Z,5.53
2019-05-06T13:00:53.921Z,5.50
2019-05-06T13:03:43.271Z,5.10
2019-05-06T13:06:14.328Z,4.83
2019-05-06T13:08:57.393Z,4.30
2019-05-06T13:11:18.664Z,4.47
2019-05-06T13:13:57.476Z,4.87
2019-05-06T13:16:22.990Z,5.10
2019-05-06T13:18:55.180Z,5.33
2019-05-06T13:21:26.312Z,5.45
2019-05-06T13:24:04.363Z,5.10
2019-05-06T13:26:35.251Z,5.58
2019-05-06T13:29:12.983Z,4.83
2019-05-06T13:31:44.291Z,4.83
2019-05-06T13:34:17.959Z,5.22
2019-05-06T13:36:49.992Z,3.67
2019-05-06T13:39:23.797Z,4.33
2019-05-06T13:41:54.154Z,4.45
2019-05-06T13:44:25.438Z,3.80
2019-05-06T13:46:56.837Z,4.37
2019-05-06T13:49:52.231Z,4.40
2019-05-06T13:52:27.300Z,4.15
2019-05-06T13:54:58.547Z,4.45
2019-05-06T13:57:31.937Z,4.65
2019-05-06T14:00:03.236Z,4.83
2019-05-06T14:02:54.024Z,4.87
2019-05-06T14:05:25.267Z,4.80
2019-05-06T14:07:56.635Z,4.20
2019-05-06T14:10:27.783Z,4.22
2019-05-06T14:12:59.095Z,4.25
2019-05-06T14:15:32.401Z,4.60
2019-05-06T14:18:03.309Z,4.08
2019-05-06T14:20:34.493Z,4.28
2019-05-06T14:23:05.719Z,4.00
2019-05-06T14:25:55.438Z,4.05
2019-05-06T14:28:32.592Z,4.62
2019-05-06T14:31:10.350Z,4.62
2019-05-06T14:33:42.834Z,4.50
2019-05-06T14:36:14.615Z,3.92
2019-05-06T14:38:46.005Z,5.35
2019-05-06T14:41:26.121Z,4.28
2019-05-06T14:43:53.080Z,4.40
2019-05-06T14:46:24.446Z,4.10
2019-05-06T14:48:55.629Z,3.77
2019-05-06T14:51:26.831Z,4.45
2019-05-06T14:53:58.063Z,4.50
2019-05-06T14:56:39.037Z,4.30
2019-05-06T14:59:12.461Z,4.42
2019-05-06T15:01:45.447Z,4.30
2019-05-06T15:04:16.193Z,4.35
2019-05-06T15:06:47.458Z,4.70
2019-05-06T15:09:18.684Z,4.40
2019-05-06T15:11:49.982Z,4.10
2019-05-06T15:14:22.680Z,4.20
2019-05-06T15:16:54.079Z,4.53
2019-05-06T15:19:25.353Z,4.78
2019-05-06T15:21:56.489Z,4.75
2019-05-06T15:24:27.796Z,3.92
2019-05-06T15:26:59.022Z,4.70
2019-05-06T15:29:30.234Z,4.72
2019-05-06T15:32:13.006Z,4.50
2019-05-06T15:35:22.285Z,3.72
2019-05-06T15:38:02.424Z,4.58
2019-05-06T15:40:36.544Z,4.47
2019-05-06T15:43:06.577Z,4.83
2019-05-06T15:45:37.826Z,4.22
2019-05-06T15:48:09.177Z,4.35
2019-05-06T15:50:44.861Z,4.62
2019-05-06T15:53:13.482Z,4.22
2019-05-06T15:55:44.695Z,4.20
2019-05-06T15:58:15.879Z,4.30
2019-05-06T16:00:47.114Z,4.65
2019-05-06T16:03:22.607Z,4.20
2019-05-06T16:05:55.230Z,3.95
2019-05-06T16:08:27.094Z,4.45
2019-05-06T16:10:59.118Z,4.35
2019-05-06T16:13:30.427Z,3.83
2019-05-06T16:16:02.994Z,4.05
2019-05-06T16:18:34.640Z,4.00
2019-05-06T16:21:05.882Z,4.30
2019-05-06T16:23:44.934Z,4.20
2019-05-06T16:26:16.330Z,4.10
2019-05-06T16:28:47.542Z,4.47
2019-05-06T16:31:18.710Z,3.90
2019-05-06T16:33:52.265Z,4.42
2019-05-06T16:36:23.957Z,4.30
2019-05-06T16:38:55.181Z,4.47
2019-05-06T16:41:26.373Z,4.30
2019-05-06T16:43:57.555Z,3.90
2019-05-06T16:46:28.819Z,4.85
2019-05-06T16:49:02.234Z,4.87
2019-05-06T16:51:32.970Z,4.20
2019-05-06T16:54:04.120Z,4.65
2019-05-06T16:56:44.633Z,4.80
2019-05-06T16:59:15.966Z,5.40
2019-05-06T17:01:47.237Z,5.42
2019-05-06T17:04:26.247Z,4.95
2019-05-06T17:06:57.410Z,5.03
2019-05-06T17:09:28.639Z,5.30
2019-05-06T17:11:59.811Z,5.10
2019-05-06T17:14:32.157Z,5.45
2019-05-06T17:17:05.106Z,5.50
2019-05-06T17:19:36.324Z,15.85
2019-05-06T17:22:08.733Z,8.58
2019-05-06T17:24:42.053Z,5.90
2019-05-06T17:27:12.910Z,5.95
2019-05-06T17:30:12.814Z,5.58
2019-05-06T17:32:47.364Z,5.37
2019-05-06T17:35:18.798Z,4.78
2019-05-06T17:37:56.668Z,4.83
2019-05-06T17:40:28.988Z,5.08
2019-05-06T17:43:02.416Z,5.05
2019-05-06T17:46:04.888Z,5.60
2019-05-06T17:48:56.288Z,5.60
2019-05-06T17:51:37.297Z,5.28
2019-05-06T17:54:07.098Z,5.60
2019-05-06T17:56:38.573Z,5.47
2019-05-06T17:59:09.956Z,5.20
2019-05-06T18:01:44.798Z,5.10
2019-05-06T18:04:16.092Z,5.17
2019-05-06T18:06:47.569Z,4.95
2019-05-06T18:09:18.923Z,5.78
2019-05-06T18:11:58.385Z,5.37
2019-05-06T18:14:24.039Z,5.43
2019-05-06T18:16:55.357Z,5.35
2019-05-06T18:19:26.726Z,5.40
2019-05-06T18:21:58.083Z,5.80
2019-05-06T18:24:29.953Z,14.00
2019-05-06T18:27:02.662Z,9.18
2019-05-06T18:29:38.044Z,5.87
2019-05-06T18:32:09.299Z,4.92
2019-05-06T18:34:40.593Z,5.10
2019-05-06T18:37:12.715Z,5.37
2019-05-06T18:39:44.303Z,5.37
2019-05-06T18:42:20.153Z,5.35
2019-05-06T18:44:48.562Z,4.90
2019-05-06T18:47:20.901Z,5.97
2019-05-06T18:49:52.496Z,4.92
2019-05-06T18:52:24.012Z,5.20
2019-05-06T18:54:55.190Z,4.75
2019-05-06T18:57:26.557Z,4.40
2019-05-06T18:59:57.777Z,5.17
2019-05-06T19:02:29.112Z,4.75
2019-05-06T19:05:06.969Z,5.35
2019-05-06T19:07:38.191Z,4.65
2019-05-06T19:10:15.256Z,5.00
2019-05-06T19:12:46.561Z,5.40
2019-05-06T19:15:17.751Z,5.10
2019-05-06T19:17:52.610Z,4.47
2019-05-06T19:20:26.161Z,4.60
2019-05-06T19:22:57.717Z,4.63
2019-05-06T19:25:28.878Z,4.80
2019-05-06T19:28:02.224Z,4.85
2019-05-06T19:30:33.810Z,5.10
2019-05-06T19:33:07.061Z,4.78
2019-05-06T19:35:38.717Z,4.53
2019-05-06T19:38:12.357Z,4.92
2019-05-06T19:40:43.286Z,5.30
2019-05-06T19:43:14.636Z,5.30
2019-05-06T19:45:45.966Z,5.27
2019-05-06T19:48:17.372Z,5.37
2019-05-06T19:50:49.631Z,5.10
2019-05-06T19:53:23.649Z,5.57
2019-05-06T19:55:56.069Z,5.12
2019-05-06T19:58:27.286Z,5.33
2019-05-06T20:00:58.693Z,5.20
2019-05-06T20:03:32.706Z,4.92
2019-05-06T20:06:22.948Z,4.97
2019-05-06T20:09:07.887Z,5.03
2019-05-06T20:11:42.587Z,4.97
2019-05-06T20:14:13.950Z,4.85
2019-05-06T20:16:45.133Z,4.75
2019-05-06T20:19:28.105Z,5.23
2019-05-06T20:21:49.221Z,5.83
2019-05-06T20:24:22.464Z,4.93
2019-05-06T20:26:53.350Z,5.30
2019-05-06T20:29:24.670Z,5.70
2019-05-06T20:31:56.007Z,5.12
2019-05-06T20:34:27.250Z,5.28
2019-05-06T20:36:58.533Z,5.10
2019-05-06T20:39:29.820Z,5.23
2019-05-06T20:42:02.896Z,5.05
2019-05-06T20:44:33.946Z,5.28
2019-05-06T20:47:05.077Z,5.50
2019-05-06T20:49:36.359Z,5.63
2019-05-06T20:52:07.485Z,5.37
2019-05-06T20:54:38.673Z,5.27
2019-05-06T20:57:12.106Z,5.60
2019-05-06T20:59:42.695Z,5.97
2019-05-06T21:02:13.970Z,5.50
2019-05-06T21:04:45.198Z,5.60
2019-05-06T21:07:16.449Z,5.47
2019-05-06T21:09:47.635Z,5.80
2019-05-06T21:12:18.954Z,6.42
2019-05-06T21:14:50.132Z,6.30
2019-05-06T21:17:22.896Z,5.63
2019-05-06T21:19:54.259Z,6.22
2019-05-06T21:22:25.473Z,6.72
2019-05-06T21:24:56.733Z,6.23
2019-05-06T21:27:27.937Z,5.83
2019-05-06T21:29:59.104Z,5.83
2019-05-06T21:32:30.333Z,6.57
2019-05-06T21:35:02.175Z,6.70
2019-05-06T21:37:34.530Z,6.20
2019-05-06T21:40:05.912Z,5.83
2019-05-06T21:42:37.260Z,7.27
2019-05-06T21:45:08.497Z,6.53
2019-05-06T21:47:39.687Z,7.77
2019-05-06T21:50:12.060Z,7.67
2019-05-06T21:52:43.378Z,8.77
2019-05-06T21:55:16.253Z,8.37
2019-05-06T21:57:47.569Z,8.27
2019-05-06T22:00:19.276Z,8.63
2019-05-06T22:02:53.053Z,8.00
2019-05-06T22:05:25.289Z,9.03
2019-05-06T22:07:56.513Z,8.60
2019-05-06T22:10:27.688Z,9.00
2019-05-06T22:12:58.918Z,8.83
2019-05-06T22:15:32.280Z,8.50
2019-05-06T22:18:02.999Z,8.87
2019-05-06T22:20:53.219Z,9.23
2019-05-06T22:23:24.428Z,9.58
2019-05-06T22:26:08.539Z,10.17
2019-05-06T22:28:28.490Z,10.13
2019-05-06T22:30:59.721Z,10.80
2019-05-06T22:33:31.802Z,10.80
2019-05-06T22:36:03.157Z,11.23
2019-05-06T22:38:35.403Z,10.63
2019-05-06T22:41:06.600Z,11.37
2019-05-06T22:43:37.850Z,12.30
2019-05-06T22:46:09.111Z,13.85
2019-05-06T22:48:40.298Z,13.13
2019-05-06T22:51:12.360Z,14.10
2019-05-06T22:53:43.836Z,12.90
2019-05-06T22:56:15.676Z,14.87
2019-05-06T22:58:46.869Z,15.43
2019-05-06T23:01:36.362Z,15.53
2019-05-06T23:04:08.149Z,16.17
2019-05-06T23:06:39.422Z,16.87
2019-05-06T23:09:10.613Z,16.63
2019-05-06T23:11:42.448Z,17.75
2019-05-06T23:14:27.616Z,18.03
2019-05-06T23:16:46.826Z,18.27
2019-05-06T23:19:17.978Z,17.27
2019-05-06T23:21:49.164Z,18.50
2019-05-06T23:24:22.413Z,17.27
2019-05-06T23:26:54.764Z,18.27
2019-05-06T23:29:27.217Z,16.37
2019-05-06T23:31:58.608Z,18.30
2019-05-06T23:34:29.768Z,17.90
2019-05-06T23:37:25.203Z,17.83
2019-05-06T23:40:42.505Z,17.70
2019-05-06T23:43:49.423Z,16.53
2019-05-06T23:46:56.648Z,17.30
2019-05-06T23:50:03.940Z,17.53
2019-05-06T23:53:12.550Z,16.50
2019-05-06T23:56:20.140Z,17.10
2019-05-06T23:58:52.378Z,16.53
